createdAt,value
2024-05-09T00:00:46.953Z,7.6
2024-05-09T00:02:03.255Z,7.6
2024-05-09T00:03:19.541Z,7.6
2024-05-09T00:04:35.835Z,7.6
2024-05-09T00:05:52.129Z,7.5
2024-05-09T00:07:08.421Z,7.6
2024-05-09T00:08:24.718Z,7.5
2024-05-09T00:09:41.018Z,7.5
2024-05-09T00:10:56.329Z,7.5
2024-05-09T00:12:12.655Z,7.5
2024-05-09T00:13:28.913Z,7.6
2024-05-09T00:14:45.205Z,7.6
2024-05-09T00:16:01.507Z,7.6
2024-05-09T00:17:17.751Z,7.6
2024-05-09T00:18:34.007Z,7.6
2024-05-09T00:19:50.303Z,7.6
2024-05-09T00:21:06.596Z,7.7
2024-05-09T00:22:22.891Z,7.7
2024-05-09T00:23:39.178Z,7.7
2024-05-09T00:24:55.477Z,7.8
2024-05-09T00:26:11.762Z,7.8
2024-05-09T00:27:27.083Z,7.8
2024-05-09T00:28:43.376Z,7.8
2024-05-09T00:29:59.666Z,7.8
2024-05-09T00:31:15.954Z,7.8
2024-05-09T00:32:32.249Z,7.8
2024-05-09T00:33:48.549Z,7.9
2024-05-09T00:35:04.844Z,7.9
2024-05-09T00:36:21.150Z,7.9
2024-05-09T00:37:37.461Z,7.9
2024-05-09T00:38:53.767Z,7.8
2024-05-09T00:40:10.023Z,7.9
2024-05-09T00:41:26.318Z,7.9
2024-05-09T00:42:42.623Z,7.9
2024-05-09T00:43:57.916Z,7.8
2024-05-09T00:45:14.215Z,7.9
2024-05-09T00:46:30.543Z,7.9
2024-05-09T00:47:46.801Z,7.9
2024-05-09T00:49:03.123Z,7.9
2024-05-09T00:50:19.403Z,7.9
2024-05-09T00:51:35.694Z,7.9
2024-05-09T00:52:51.993Z,7.9
2024-05-09T00:54:08.308Z,7.8
2024-05-09T00:55:24.570Z,7.9
2024-05-09T00:56:40.874Z,7.9
2024-05-09T00:57:57.159Z,7.9
2024-05-09T00:59:13.461Z,7.9
2024-05-09T01:00:28.769Z,7.9
2024-05-09T01:01:45.059Z,7.9
2024-05-09T01:03:01.394Z,7.9
2024-05-09T01:04:17.652Z,7.9
2024-05-09T01:05:33.941Z,7.9
2024-05-09T01:06:50.234Z,7.9
2024-05-09T01:08:06.526Z,7.9
2024-05-09T01:09:22.856Z,7.8
2024-05-09T01:10:39.125Z,7.8
2024-05-09T01:11:55.420Z,7.8
2024-05-09T01:13:11.716Z,7.8
2024-05-09T01:14:28.012Z,7.7
2024-05-09T01:15:44.308Z,7.7
2024-05-09T01:16:59.634Z,7.7
2024-05-09T01:18:15.911Z,7.7
2024-05-09T01:19:32.194Z,7.7
2024-05-09T01:20:48.504Z,7.6
2024-05-09T01:22:04.793Z,7.6
2024-05-09T01:23:21.089Z,7.6
2024-05-09T01:24:37.379Z,7.6
2024-05-09T01:25:53.672Z,7.5
2024-05-09T01:27:09.997Z,7.5
2024-05-09T01:28:26.258Z,7.5
2024-05-09T01:29:42.564Z,7.5
2024-05-09T01:30:58.856Z,7.5
2024-05-09T01:32:15.173Z,7.4
2024-05-09T01:33:30.452Z,7.4
2024-05-09T01:34:46.744Z,7.4
2024-05-09T01:36:03.050Z,7.4
2024-05-09T01:37:19.348Z,7.3
2024-05-09T01:38:35.640Z,7.3
2024-05-09T01:39:51.925Z,7.3
2024-05-09T01:41:08.217Z,7.2
2024-05-09T01:42:24.518Z,7.2
2024-05-09T01:43:40.811Z,7.2
2024-05-09T01:44:57.117Z,7.1
2024-05-09T01:46:13.408Z,7.1
2024-05-09T01:47:29.694Z,7.1
2024-05-09T01:48:45.999Z,7.2
2024-05-09T01:50:01.306Z,7.2
2024-05-09T01:51:17.589Z,7.1
2024-05-09T01:52:33.892Z,7.1
2024-05-09T01:53:50.187Z,7.1
2024-05-09T01:55:06.473Z,7.1
2024-05-09T01:56:22.768Z,7.1
2024-05-09T01:57:38.083Z,7.1
2024-05-09T01:58:54.387Z,7.1
2024-05-09T02:00:10.674Z,7.1
2024-05-09T02:01:26.973Z,7.1
2024-05-09T02:02:43.276Z,7
2024-05-09T02:03:59.558Z,7.1
2024-05-09T02:05:15.852Z,7.1
2024-05-09T02:06:32.159Z,7.1
2024-05-09T02:07:48.454Z,7.1
2024-05-09T02:09:04.752Z,7.1
2024-05-09T02:10:21.046Z,7.1
2024-05-09T02:11:37.342Z,7.1
2024-05-09T02:12:53.638Z,7.1
2024-05-09T02:14:08.934Z,7.1
2024-05-09T02:15:25.230Z,7.1
2024-05-09T02:16:41.531Z,7.1
2024-05-09T02:17:57.824Z,7.1
2024-05-09T02:19:14.120Z,7.1
2024-05-09T02:20:30.420Z,7.1
2024-05-09T02:21:46.704Z,7.1
2024-05-09T02:23:03.011Z,7.1
2024-05-09T02:24:19.301Z,7.1
2024-05-09T02:25:35.598Z,7.2
2024-05-09T02:26:51.882Z,7.1
2024-05-09T02:28:08.179Z,7.1
2024-05-09T02:29:24.480Z,7.1
2024-05-09T02:30:39.779Z,7.1
2024-05-09T02:31:56.123Z,7.1
2024-05-09T02:33:12.410Z,7.1
2024-05-09T02:34:28.661Z,7.1
2024-05-09T02:35:44.960Z,7.1
2024-05-09T02:37:01.259Z,7.1
2024-05-09T02:38:17.549Z,7.1
2024-05-09T02:39:33.853Z,7.1
2024-05-09T02:40:50.140Z,7.1
2024-05-09T02:42:06.442Z,7.1
2024-05-09T02:43:22.730Z,7.1
2024-05-09T02:44:39.018Z,7.1
2024-05-09T02:45:55.321Z,7.1
2024-05-09T02:47:10.625Z,7.1
2024-05-09T02:48:26.966Z,7.1
2024-05-09T02:49:43.216Z,7.1
2024-05-09T02:50:59.515Z,7.1
2024-05-09T02:52:15.821Z,7.1
2024-05-09T02:53:32.104Z,7.1
2024-05-09T02:54:48.394Z,7.1
2024-05-09T02:56:04.704Z,7.1
2024-05-09T02:57:20.993Z,7.1
2024-05-09T02:58:37.228Z,7.1
2024-05-09T02:59:53.534Z,7.1
2024-05-09T03:01:09.821Z,7.1
2024-05-09T03:02:26.118Z,7.1
2024-05-09T03:03:41.379Z,7.1
2024-05-09T03:04:57.678Z,7.1
2024-05-09T03:06:14.011Z,7.1
2024-05-09T03:07:30.267Z,7.1
2024-05-09T03:08:46.572Z,7.1
2024-05-09T03:10:02.865Z,7.1
2024-05-09T03:11:19.150Z,7.1
2024-05-09T03:12:35.456Z,7.1
2024-05-09T03:13:51.691Z,7.1
2024-05-09T03:15:07.948Z,7.1
2024-05-09T03:16:24.186Z,7.2
2024-05-09T03:17:40.428Z,7.2
2024-05-09T03:18:56.667Z,7.2
2024-05-09T03:20:11.917Z,7.2
2024-05-09T03:21:28.150Z,7.2
2024-05-09T03:22:44.396Z,7.2
2024-05-09T03:24:00.644Z,7.2
2024-05-09T03:25:16.893Z,7.2
2024-05-09T03:26:33.134Z,7.2
2024-05-09T03:27:49.372Z,7.3
2024-05-09T03:29:05.597Z,7.2
2024-05-09T03:30:21.854Z,7.2
2024-05-09T03:31:38.076Z,7.2
2024-05-09T03:32:54.333Z,7.3
2024-05-09T03:34:10.563Z,7.3
2024-05-09T03:35:26.803Z,7.3
2024-05-09T03:36:42.060Z,7.3
2024-05-09T03:37:58.300Z,7.3
2024-05-09T03:39:14.546Z,7.4
2024-05-09T03:40:30.795Z,7.4
2024-05-09T03:41:47.017Z,7.4
2024-05-09T03:43:03.276Z,7.4
2024-05-09T03:44:19.502Z,7.4
2024-05-09T03:45:35.748Z,7.5
2024-05-09T03:46:51.990Z,7.4
2024-05-09T03:48:08.228Z,7.4
2024-05-09T03:49:24.508Z,7.5
2024-05-09T03:50:40.711Z,7.4
2024-05-09T03:51:56.954Z,7.5
2024-05-09T03:53:12.211Z,7.5
2024-05-09T03:54:28.458Z,7.5
2024-05-09T03:55:44.689Z,7.5
2024-05-09T03:57:00.933Z,7.5
2024-05-09T03:58:17.165Z,7.5
2024-05-09T03:59:33.421Z,7.5
2024-05-09T04:00:49.648Z,7.5
2024-05-09T04:02:05.900Z,7.5
2024-05-09T04:03:22.138Z,7.5
2024-05-09T04:04:38.381Z,7.5
2024-05-09T04:05:54.620Z,7.6
2024-05-09T04:07:10.863Z,7.6
2024-05-09T04:09:43.379Z,7.6
2024-05-09T04:10:58.587Z,7.6
2024-05-09T04:12:14.836Z,7.6
2024-05-09T04:13:31.073Z,7.7
2024-05-09T04:14:47.316Z,7.7
2024-05-09T04:16:03.557Z,7.7
2024-05-09T04:17:19.798Z,7.7
2024-05-09T04:18:36.036Z,7.7
2024-05-09T04:19:52.286Z,7.7
2024-05-09T04:21:08.527Z,7.7
2024-05-09T04:22:24.770Z,7.7
2024-05-09T04:23:40.999Z,7.7
2024-05-09T04:24:57.248Z,7.7
2024-05-09T04:26:13.478Z,7.7
2024-05-09T04:27:28.741Z,7.8
2024-05-09T04:28:44.974Z,7.7
2024-05-09T04:30:01.231Z,7.8
2024-05-09T04:31:17.453Z,7.8
2024-05-09T04:32:33.709Z,7.8
2024-05-09T04:33:49.947Z,7.8
2024-05-09T04:35:06.182Z,7.8
2024-05-09T04:37:38.665Z,7.9
2024-05-09T04:38:54.898Z,7.9
2024-05-09T04:40:11.150Z,7.9
2024-05-09T04:41:27.383Z,7.9
2024-05-09T04:42:43.636Z,7.9
2024-05-09T04:43:58.885Z,7.9
2024-05-09T04:45:15.116Z,7.9
2024-05-09T04:46:31.376Z,7.9
2024-05-09T04:47:47.610Z,7.9
2024-05-09T04:49:03.851Z,8
2024-05-09T04:50:20.120Z,7.9
2024-05-09T04:51:36.334Z,8
2024-05-09T04:52:52.566Z,8
2024-05-09T04:54:08.811Z,8
2024-05-09T04:55:25.081Z,8
2024-05-09T04:56:41.296Z,8
2024-05-09T04:57:57.542Z,8
2024-05-09T04:59:13.781Z,8
2024-05-09T05:00:29.059Z,8.1
2024-05-09T05:01:45.269Z,8.1
2024-05-09T05:03:01.514Z,8.1
2024-05-09T05:04:17.752Z,8.2
2024-05-09T05:05:34.026Z,8.2
2024-05-09T05:06:50.234Z,8.2
2024-05-09T05:08:06.463Z,8.2
2024-05-09T05:09:22.708Z,8.2
2024-05-09T05:10:38.947Z,8.3
2024-05-09T05:11:55.197Z,8.3
2024-05-09T05:13:11.475Z,8.4
2024-05-09T05:14:27.672Z,8.4
2024-05-09T05:15:43.916Z,8.5
2024-05-09T05:16:59.180Z,8.5
2024-05-09T05:18:15.408Z,8.6
2024-05-09T05:19:31.650Z,8.6
2024-05-09T05:20:47.890Z,8.6
2024-05-09T05:22:04.139Z,8.7
2024-05-09T05:23:20.371Z,8.7
2024-05-09T05:24:36.623Z,8.7
2024-05-09T05:25:52.864Z,8.8
2024-05-09T05:28:25.370Z,8.9
2024-05-09T05:29:41.574Z,8.9
2024-05-09T05:30:57.828Z,9
2024-05-09T05:32:14.068Z,9
2024-05-09T05:33:29.320Z,9
2024-05-09T05:34:45.552Z,9
2024-05-09T05:36:01.803Z,9.1
2024-05-09T05:37:18.031Z,9.1
2024-05-09T05:38:34.273Z,9.1
2024-05-09T05:39:50.524Z,9.2
2024-05-09T05:41:06.748Z,9.3
2024-05-09T05:42:23.031Z,9.3
2024-05-09T05:43:39.240Z,9.3
2024-05-09T05:44:55.480Z,9.4
2024-05-09T05:46:11.718Z,9.4
2024-05-09T05:47:27.969Z,9.5
2024-05-09T05:48:44.193Z,9.5
2024-05-09T05:49:59.465Z,9.6
2024-05-09T05:51:15.692Z,9.6
2024-05-09T05:52:31.935Z,9.6
2024-05-09T05:53:48.185Z,9.7
2024-05-09T05:55:04.424Z,9.7
2024-05-09T05:56:20.664Z,9.8
2024-05-09T05:57:36.906Z,9.8
2024-05-09T05:58:53.131Z,9.9
2024-05-09T06:00:09.378Z,9.9
2024-05-09T06:01:25.614Z,10
2024-05-09T06:02:41.871Z,10.1
2024-05-09T06:03:58.145Z,10.1
2024-05-09T06:05:14.341Z,10.2
2024-05-09T06:06:29.597Z,10.3
2024-05-09T06:07:45.846Z,10.3
2024-05-09T06:09:02.081Z,10.4
2024-05-09T06:10:18.319Z,10.5
2024-05-09T06:11:34.558Z,10.6
2024-05-09T06:12:49.817Z,10.6
2024-05-09T06:14:06.100Z,10.7
2024-05-09T06:15:22.302Z,10.8
2024-05-09T06:16:38.554Z,10.8
2024-05-09T06:17:54.781Z,10.9
2024-05-09T06:19:11.035Z,10.9
2024-05-09T06:20:27.261Z,11
2024-05-09T06:21:43.542Z,11.1
2024-05-09T06:22:59.740Z,11.2
2024-05-09T06:24:15.993Z,11.3
2024-05-09T06:25:32.231Z,11.5
2024-05-09T06:26:48.458Z,11.6
2024-05-09T06:28:04.704Z,11.7
2024-05-09T06:29:19.967Z,11.8
2024-05-09T06:30:36.199Z,11.8
2024-05-09T06:31:52.435Z,11.9
2024-05-09T06:33:08.678Z,11.9
2024-05-09T06:34:24.915Z,12
2024-05-09T06:35:41.173Z,12
2024-05-09T06:36:57.400Z,12.1
2024-05-09T06:38:13.637Z,12.2
2024-05-09T06:39:29.000Z,12.2
2024-05-09T06:40:46.124Z,12.3
2024-05-09T06:42:02.358Z,12.3
2024-05-09T06:43:18.598Z,12.3
2024-05-09T06:44:34.840Z,12.4
2024-05-09T06:45:50.104Z,12.5
2024-05-09T06:47:06.354Z,12.6
2024-05-09T06:48:22.593Z,12.7
2024-05-09T06:49:38.827Z,12.7
2024-05-09T06:50:55.067Z,12.8
2024-05-09T06:52:11.299Z,12.8
2024-05-09T06:53:27.554Z,12.9
2024-05-09T06:54:43.793Z,13
2024-05-09T06:56:00.032Z,13.1
2024-05-09T06:57:16.267Z,13.1
2024-05-09T06:58:32.510Z,13.2
2024-05-09T06:59:48.740Z,13.3
2024-05-09T07:01:04.981Z,13.4
2024-05-09T07:02:20.249Z,13.4
2024-05-09T07:03:36.495Z,13.5
2024-05-09T07:04:52.733Z,13.6
2024-05-09T07:06:08.956Z,13.6
2024-05-09T07:07:25.213Z,13.7
2024-05-09T07:08:41.451Z,13.8
2024-05-09T07:09:57.694Z,13.8
2024-05-09T07:11:13.926Z,13.9
2024-05-09T07:12:30.170Z,13.9
2024-05-09T07:13:46.408Z,14
2024-05-09T07:15:02.645Z,14
2024-05-09T07:16:18.888Z,14.1
2024-05-09T07:17:35.120Z,14.2
2024-05-09T07:18:50.387Z,14.3
2024-05-09T07:20:06.615Z,14.4
2024-05-09T07:21:22.867Z,14.4
2024-05-09T07:22:39.143Z,14.5
2024-05-09T07:23:55.355Z,14.6
2024-05-09T07:25:11.577Z,14.7
2024-05-09T07:26:27.824Z,14.8
2024-05-09T07:27:44.060Z,14.9
2024-05-09T07:29:00.299Z,14.9
2024-05-09T07:30:16.553Z,15
2024-05-09T07:31:32.781Z,15.1
2024-05-09T07:32:49.020Z,15.2
2024-05-09T07:34:05.262Z,15.3
2024-05-09T07:35:20.564Z,15.4
2024-05-09T07:36:36.755Z,15.5
2024-05-09T07:37:53.007Z,15.5
2024-05-09T07:39:09.248Z,15.6
2024-05-09T07:40:25.519Z,15.7
2024-05-09T07:41:41.731Z,15.7
2024-05-09T07:42:57.955Z,15.7
2024-05-09T07:44:14.210Z,15.7
2024-05-09T07:45:30.435Z,15.8
2024-05-09T07:46:46.681Z,15.9
2024-05-09T07:48:02.935Z,15.9
2024-05-09T07:49:19.167Z,15.9
2024-05-09T07:50:35.400Z,16
2024-05-09T07:51:50.654Z,16.1
2024-05-09T07:53:06.896Z,16.2
2024-05-09T07:54:23.145Z,16.2
2024-05-09T07:55:39.378Z,16.3
2024-05-09T07:56:55.615Z,16.4
2024-05-09T07:58:11.860Z,16.5
2024-05-09T07:59:28.111Z,16.6
2024-05-09T08:00:44.383Z,16.7
2024-05-09T08:02:00.582Z,16.7
2024-05-09T08:03:16.832Z,16.8
2024-05-09T08:04:33.070Z,16.9
2024-05-09T08:05:49.295Z,17
2024-05-09T08:07:05.540Z,17
2024-05-09T08:08:20.804Z,17.1
2024-05-09T08:09:37.032Z,17.2
2024-05-09T08:10:53.277Z,17.2
2024-05-09T08:12:09.524Z,17.2
2024-05-09T08:13:25.751Z,17.2
2024-05-09T08:14:42.004Z,17.3
2024-05-09T08:15:58.285Z,17.3
2024-05-09T08:17:14.473Z,17.4
2024-05-09T08:18:30.729Z,17.4
2024-05-09T08:19:46.965Z,17.5
2024-05-09T08:21:03.201Z,17.5
2024-05-09T08:22:19.432Z,17.6
2024-05-09T08:23:35.676Z,17.6
2024-05-09T08:24:50.938Z,17.6
2024-05-09T08:26:07.175Z,17.6
2024-05-09T08:27:23.420Z,17.5
2024-05-09T08:28:39.650Z,17.5
2024-05-09T08:29:55.896Z,17.5
2024-05-09T08:31:12.141Z,17.6
2024-05-09T08:32:28.370Z,17.7
2024-05-09T08:33:44.620Z,17.7
2024-05-09T08:35:00.870Z,17.8
2024-05-09T08:36:17.095Z,17.8
2024-05-09T08:37:33.347Z,17.9
2024-05-09T08:38:49.579Z,17.9
2024-05-09T08:40:05.828Z,17.9
2024-05-09T08:41:21.087Z,18
2024-05-09T08:42:37.307Z,18
2024-05-09T08:43:53.548Z,17.9
2024-05-09T08:45:09.803Z,18
2024-05-09T08:46:26.029Z,18
2024-05-09T08:47:42.280Z,18.1
2024-05-09T08:48:58.517Z,18.2
2024-05-09T08:50:14.767Z,18.3
2024-05-09T08:51:31.001Z,18.4
2024-05-09T08:52:47.242Z,18.4
2024-05-09T08:54:03.519Z,18.4
2024-05-09T08:55:19.714Z,18.5
2024-05-09T08:56:35.955Z,18.6
2024-05-09T08:57:51.224Z,18.7
2024-05-09T08:59:07.464Z,18.8
2024-05-09T09:00:23.691Z,18.9
2024-05-09T09:01:39.929Z,19
2024-05-09T09:02:56.167Z,19.1
2024-05-09T09:04:12.424Z,19.1
2024-05-09T09:05:28.656Z,19.2
2024-05-09T09:06:44.897Z,19.2
2024-05-09T09:08:01.130Z,19.2
2024-05-09T09:09:17.372Z,19.2
2024-05-09T09:10:33.605Z,19.2
2024-05-09T09:11:49.864Z,19.2
2024-05-09T09:13:06.102Z,19.3
2024-05-09T09:14:21.355Z,19.4
2024-05-09T09:15:37.602Z,19.4
2024-05-09T09:16:53.880Z,19.5
2024-05-09T09:18:10.065Z,19.6
2024-05-09T09:19:26.301Z,19.6
2024-05-09T09:20:42.544Z,19.7
2024-05-09T09:21:58.803Z,19.7
2024-05-09T09:23:15.029Z,19.7
2024-05-09T09:24:31.261Z,19.8
2024-05-09T09:25:47.507Z,19.9
2024-05-09T09:27:03.756Z,20
2024-05-09T09:28:19.981Z,20.1
2024-05-09T09:29:36.242Z,20
2024-05-09T09:30:51.486Z,20.1
2024-05-09T09:32:07.720Z,20.2
2024-05-09T09:33:24.015Z,20.3
2024-05-09T09:34:40.262Z,20.3
2024-05-09T09:35:56.451Z,20.4
2024-05-09T09:37:12.000Z,20.4
2024-05-09T09:38:28.928Z,20.4
2024-05-09T09:39:45.160Z,20.5
2024-05-09T09:41:01.412Z,20.6
2024-05-09T09:42:17.648Z,20.7
2024-05-09T09:43:33.890Z,20.8
2024-05-09T09:44:50.127Z,20.9
2024-05-09T09:46:06.376Z,20.9
2024-05-09T09:47:21.628Z,21
2024-05-09T09:48:37.859Z,21.1
2024-05-09T09:49:54.112Z,21.1
2024-05-09T09:51:10.351Z,21.1
2024-05-09T09:52:26.583Z,21.2
2024-05-09T09:53:42.830Z,21.3
2024-05-09T09:54:59.070Z,21.4
2024-05-09T09:56:15.309Z,21.6
2024-05-09T09:57:31.555Z,21.7
2024-05-09T09:58:47.789Z,21.7
2024-05-09T10:00:04.024Z,21.8
2024-05-09T10:01:20.270Z,21.9
2024-05-09T10:02:36.508Z,21.9
2024-05-09T10:03:51.768Z,22
2024-05-09T10:05:08.001Z,21.9
2024-05-09T10:06:24.246Z,21.9
2024-05-09T10:07:40.485Z,21.9
2024-05-09T10:08:56.725Z,21.9
2024-05-09T10:10:12.971Z,22
2024-05-09T10:11:29.196Z,22
2024-05-09T10:12:45.445Z,22
2024-05-09T10:14:01.680Z,21.8
2024-05-09T10:15:17.978Z,21.8
2024-05-09T10:16:34.188Z,21.7
2024-05-09T10:17:50.407Z,21.8
2024-05-09T10:19:06.659Z,21.8
2024-05-09T10:20:21.905Z,21.7
2024-05-09T10:21:38.198Z,21.8
2024-05-09T10:22:54.394Z,21.9
2024-05-09T10:24:10.630Z,22
2024-05-09T10:25:26.873Z,22
2024-05-09T10:26:43.110Z,22.1
2024-05-09T10:27:58.376Z,22.2
2024-05-09T10:29:14.608Z,22.3
2024-05-09T10:30:30.861Z,22.4
2024-05-09T10:31:47.086Z,22.2
2024-05-09T10:33:03.375Z,22
2024-05-09T10:34:19.579Z,21.8
2024-05-09T10:35:35.817Z,21.6
2024-05-09T10:36:52.073Z,21.4
2024-05-09T10:38:08.299Z,21.2
2024-05-09T10:39:24.538Z,21
2024-05-09T10:40:40.844Z,20.9
2024-05-09T10:41:57.023Z,20.7
2024-05-09T10:43:13.259Z,20.8
2024-05-09T10:44:28.525Z,20.9
2024-05-09T10:45:44.767Z,21.1
2024-05-09T10:47:01.058Z,21.2
2024-05-09T10:48:17.248Z,21.4
2024-05-09T10:49:33.485Z,21.5
2024-05-09T10:50:49.770Z,21.5
2024-05-09T10:52:05.959Z,21.6
2024-05-09T10:53:22.198Z,21.5
2024-05-09T10:54:38.437Z,21.5
2024-05-09T10:55:54.732Z,21.4
2024-05-09T10:57:10.918Z,21.2
2024-05-09T10:58:27.168Z,21.1
2024-05-09T10:59:43.397Z,21
2024-05-09T11:00:58.668Z,20.9
2024-05-09T11:02:14.897Z,20.8
2024-05-09T11:03:31.142Z,20.7
2024-05-09T11:04:47.389Z,20.8
2024-05-09T11:06:03.624Z,20.9
2024-05-09T11:07:19.864Z,21.2
2024-05-09T11:08:36.096Z,21.1
2024-05-09T11:09:52.391Z,21.1
2024-05-09T11:11:08.589Z,21.1
2024-05-09T11:12:24.813Z,21.1
2024-05-09T11:13:41.054Z,21.1
2024-05-09T11:14:57.296Z,21.1
2024-05-09T11:16:13.534Z,21.3
2024-05-09T11:17:28.799Z,21.4
2024-05-09T11:18:45.049Z,21.6
2024-05-09T11:20:01.280Z,21.7
2024-05-09T11:21:17.513Z,21.9
2024-05-09T11:22:33.752Z,22.1
2024-05-09T11:23:49.991Z,22.2
2024-05-09T11:25:06.247Z,22.3
2024-05-09T11:26:22.522Z,22.4
2024-05-09T11:27:38.000Z,22.4
2024-05-09T11:28:54.968Z,22.4
2024-05-09T11:30:11.207Z,22.6
2024-05-09T11:31:27.432Z,22.8
2024-05-09T11:32:43.684Z,22.8
2024-05-09T11:33:58.940Z,22.7
2024-05-09T11:35:15.171Z,22.7
2024-05-09T11:36:31.422Z,22.5
2024-05-09T11:37:47.698Z,22.4
2024-05-09T11:39:03.890Z,22.4
2024-05-09T11:40:20.142Z,22.5
2024-05-09T11:41:36.419Z,22.6
2024-05-09T11:42:52.614Z,22.7
2024-05-09T11:44:08.846Z,22.9
2024-05-09T11:45:25.102Z,23
2024-05-09T11:46:41.380Z,23.2
2024-05-09T11:47:57.637Z,23.4
2024-05-09T11:49:13.865Z,23.5
2024-05-09T11:50:29.066Z,23.5
2024-05-09T11:51:45.318Z,23.6
2024-05-09T11:53:01.555Z,23.7
2024-05-09T11:54:17.802Z,23.8
2024-05-09T11:55:34.034Z,23.8
2024-05-09T11:56:50.283Z,23.9
2024-05-09T11:58:06.520Z,23.9
2024-05-09T11:59:22.746Z,23.9
2024-05-09T12:00:38.987Z,24
2024-05-09T12:01:55.233Z,23.9
2024-05-09T12:03:11.527Z,24
2024-05-09T12:04:27.718Z,24
2024-05-09T12:05:43.961Z,23.8
2024-05-09T12:06:59.267Z,23.8
2024-05-09T12:08:15.453Z,23.5
2024-05-09T12:09:31.690Z,23.3
2024-05-09T12:10:47.926Z,23
2024-05-09T12:12:04.179Z,22.7
2024-05-09T12:13:20.417Z,22.6
2024-05-09T12:14:36.648Z,22.5
2024-05-09T12:15:52.891Z,22.5
2024-05-09T12:17:09.179Z,22.4
2024-05-09T12:18:25.365Z,22.5
2024-05-09T12:19:41.609Z,22.5
2024-05-09T12:20:57.856Z,22.4
2024-05-09T12:22:14.090Z,22.2
2024-05-09T12:23:29.356Z,22.1
2024-05-09T12:24:45.580Z,21.9
2024-05-09T12:26:01.824Z,21.8
2024-05-09T12:27:18.115Z,21.8
2024-05-09T12:28:34.301Z,21.8
2024-05-09T12:29:50.560Z,21.7
2024-05-09T12:31:06.797Z,21.7
2024-05-09T12:32:23.039Z,21.7
2024-05-09T12:33:39.272Z,21.7
2024-05-09T12:34:55.509Z,21.7
2024-05-09T12:36:11.757Z,21.8
2024-05-09T12:37:27.995Z,21.8
2024-05-09T12:38:44.222Z,21.8
2024-05-09T12:39:59.487Z,21.7
2024-05-09T12:41:15.725Z,21.6
2024-05-09T12:42:31.964Z,21.5
2024-05-09T12:43:48.212Z,21.5
2024-05-09T12:45:04.450Z,21.3
2024-05-09T12:46:20.698Z,21.2
2024-05-09T12:47:36.931Z,21.2
2024-05-09T12:48:53.160Z,21.1
2024-05-09T12:50:09.413Z,21
2024-05-09T12:51:25.660Z,20.9
2024-05-09T12:52:41.899Z,20.9
2024-05-09T12:53:58.131Z,20.8
2024-05-09T12:55:14.368Z,20.7
2024-05-09T12:56:29.616Z,20.7
2024-05-09T12:57:45.873Z,20.6
2024-05-09T12:59:02.098Z,20.5
2024-05-09T13:00:18.341Z,20.5
2024-05-09T13:01:34.581Z,20.5
2024-05-09T13:02:50.823Z,20.5
2024-05-09T13:04:07.064Z,20.5
2024-05-09T13:05:23.308Z,20.4
2024-05-09T13:06:39.535Z,20.4
2024-05-09T13:07:55.795Z,20.5
2024-05-09T13:09:12.019Z,20.4
2024-05-09T13:10:28.265Z,20.4
2024-05-09T13:11:44.513Z,20.4
2024-05-09T13:12:59.775Z,20.4
2024-05-09T13:14:16.011Z,20.4
2024-05-09T13:15:32.245Z,20.3
2024-05-09T13:16:48.479Z,20.3
2024-05-09T13:18:04.718Z,20.2
2024-05-09T13:19:20.968Z,20.2
2024-05-09T13:20:37.217Z,20.2
2024-05-09T13:21:53.446Z,20.2
2024-05-09T13:23:09.676Z,20.2
2024-05-09T13:24:25.930Z,20.2
2024-05-09T13:25:42.167Z,20.2
2024-05-09T13:26:58.395Z,20.2
2024-05-09T13:28:14.645Z,20.3
2024-05-09T13:29:29.904Z,20.3
2024-05-09T13:30:46.137Z,20.3
2024-05-09T13:32:02.380Z,20.3
2024-05-09T13:33:18.620Z,20.3
2024-05-09T13:34:34.000Z,20.4
2024-05-09T13:35:51.101Z,20.3
2024-05-09T13:37:07.341Z,20.3
2024-05-09T13:38:23.580Z,20.3
2024-05-09T13:39:39.820Z,20.3
2024-05-09T13:40:56.072Z,20.3
2024-05-09T13:42:12.306Z,20.2
2024-05-09T13:43:28.533Z,20.2
2024-05-09T13:44:44.776Z,20.2
2024-05-09T13:46:00.031Z,20.2
2024-05-09T13:47:16.281Z,20.2
2024-05-09T13:48:32.519Z,20.1
2024-05-09T13:49:48.763Z,20.1
2024-05-09T13:51:05.001Z,20
2024-05-09T13:52:21.231Z,20
2024-05-09T13:53:37.478Z,20
2024-05-09T13:54:53.718Z,20
2024-05-09T13:56:09.964Z,20
2024-05-09T13:57:26.199Z,20
2024-05-09T13:58:42.443Z,20
2024-05-09T13:59:58.671Z,20
2024-05-09T14:01:14.920Z,20
2024-05-09T14:02:30.181Z,20
2024-05-09T14:03:46.420Z,20
2024-05-09T14:05:02.649Z,20
2024-05-09T14:06:18.907Z,19.9
2024-05-09T14:07:35.136Z,19.9
2024-05-09T14:08:51.378Z,19.9
2024-05-09T14:11:23.867Z,19.9
2024-05-09T14:12:40.088Z,19.9
2024-05-09T14:13:56.339Z,19.9
2024-05-09T14:15:12.578Z,19.9
2024-05-09T14:16:28.809Z,19.9
2024-05-09T14:17:45.059Z,19.9
2024-05-09T14:19:00.323Z,19.9
2024-05-09T14:20:16.559Z,19.9
2024-05-09T14:21:32.795Z,19.8
2024-05-09T14:22:49.038Z,19.8
2024-05-09T14:24:05.270Z,19.8
2024-05-09T14:25:21.512Z,19.8
2024-05-09T14:26:37.754Z,19.8
2024-05-09T14:27:53.990Z,19.8
2024-05-09T14:29:10.230Z,19.8
2024-05-09T14:30:26.484Z,19.8
2024-05-09T14:31:42.711Z,19.8
2024-05-09T14:32:58.961Z,19.8
2024-05-09T14:34:15.200Z,19.8
2024-05-09T14:35:30.446Z,19.8
2024-05-09T14:36:46.704Z,19.8
2024-05-09T14:38:02.933Z,19.8
2024-05-09T14:39:19.164Z,19.7
2024-05-09T14:40:35.410Z,19.7
2024-05-09T14:41:51.651Z,19.7
2024-05-09T14:43:06.913Z,19.6
2024-05-09T14:44:23.156Z,19.6
2024-05-09T14:45:39.392Z,19.6
2024-05-09T14:46:55.636Z,19.6
2024-05-09T14:48:11.889Z,19.6
2024-05-09T14:49:28.111Z,19.6
2024-05-09T14:50:44.359Z,19.6
2024-05-09T14:52:00.609Z,19.6
2024-05-09T14:53:16.837Z,19.6
2024-05-09T14:54:33.079Z,19.6
2024-05-09T14:55:49.307Z,19.6
2024-05-09T14:57:05.561Z,19.6
2024-05-09T14:58:21.788Z,19.6
2024-05-09T14:59:37.051Z,19.6
2024-05-09T15:00:53.304Z,19.6
2024-05-09T15:02:09.539Z,19.6
2024-05-09T15:03:25.769Z,19.7
2024-05-09T15:04:42.007Z,19.7
2024-05-09T15:05:58.258Z,19.7
2024-05-09T15:07:14.503Z,19.7
2024-05-09T15:08:30.743Z,19.8
2024-05-09T15:09:46.990Z,19.8
2024-05-09T15:11:03.217Z,19.8
2024-05-09T15:12:19.450Z,19.8
2024-05-09T15:13:35.703Z,19.8
2024-05-09T15:14:51.936Z,19.8
2024-05-09T15:16:07.184Z,19.8
2024-05-09T15:17:23.439Z,19.9
2024-05-09T15:18:39.680Z,20.1
2024-05-09T15:19:55.922Z,20.4
2024-05-09T15:21:12.146Z,20.5
2024-05-09T15:22:28.389Z,20.6
2024-05-09T15:23:44.641Z,20.6
2024-05-09T15:25:00.875Z,20.7
2024-05-09T15:26:17.134Z,20.9
2024-05-09T15:27:33.363Z,21.3
2024-05-09T15:28:49.606Z,21.3
2024-05-09T15:30:05.846Z,21.1
2024-05-09T15:31:22.077Z,21
2024-05-09T15:32:37.335Z,20.9
2024-05-09T15:33:53.573Z,20.7
2024-05-09T15:35:09.826Z,20.6
2024-05-09T15:36:26.055Z,20.4
2024-05-09T15:37:42.304Z,20.3
2024-05-09T15:38:58.548Z,20.2
2024-05-09T15:40:14.782Z,20.1
2024-05-09T15:41:31.022Z,20
2024-05-09T15:42:47.273Z,19.9
2024-05-09T15:44:03.514Z,19.9
2024-05-09T15:45:19.742Z,19.8
2024-05-09T15:46:35.991Z,19.8
2024-05-09T15:47:52.230Z,19.8
2024-05-09T15:49:07.483Z,19.7
2024-05-09T15:50:23.717Z,19.7
2024-05-09T15:51:39.963Z,19.6
2024-05-09T15:52:56.192Z,19.6
2024-05-09T15:54:12.432Z,19.6
2024-05-09T15:55:28.679Z,19.5
2024-05-09T15:56:44.930Z,19.5
2024-05-09T15:58:01.164Z,19.4
2024-05-09T15:59:17.394Z,19.4
2024-05-09T16:00:33.644Z,19.4
2024-05-09T16:01:49.877Z,19.4
2024-05-09T16:03:06.113Z,19.3
2024-05-09T16:04:22.355Z,19.2
2024-05-09T16:05:37.612Z,19.2
2024-05-09T16:06:53.863Z,19.2
2024-05-09T16:08:10.101Z,19.2
2024-05-09T16:09:26.336Z,19.1
2024-05-09T16:10:42.590Z,19.1
2024-05-09T16:11:58.829Z,19.1
2024-05-09T16:13:15.068Z,19.1
2024-05-09T16:14:31.294Z,19.1
2024-05-09T16:15:47.532Z,19.1
2024-05-09T16:17:03.774Z,19.1
2024-05-09T16:18:20.010Z,19
2024-05-09T16:19:36.270Z,19
2024-05-09T16:20:52.496Z,19
2024-05-09T16:22:07.756Z,19
2024-05-09T16:23:24.006Z,19
2024-05-09T16:24:40.234Z,19
2024-05-09T16:25:56.471Z,19
2024-05-09T16:27:12.726Z,19
2024-05-09T16:28:28.963Z,18.9
2024-05-09T16:29:45.188Z,19
2024-05-09T16:31:01.438Z,18.9
2024-05-09T16:32:17.669Z,18.9
2024-05-09T16:33:33.912Z,18.9
2024-05-09T16:34:50.166Z,18.9
2024-05-09T16:36:06.394Z,18.9
2024-05-09T16:37:22.645Z,18.8
2024-05-09T16:38:37.893Z,18.8
2024-05-09T16:39:54.136Z,18.7
2024-05-09T16:41:10.379Z,18.7
2024-05-09T16:42:26.624Z,18.7
2024-05-09T16:43:42.865Z,18.7
2024-05-09T16:44:59.105Z,18.7
2024-05-09T16:46:15.330Z,18.6
2024-05-09T16:47:31.572Z,18.6
2024-05-09T16:48:47.821Z,18.6
2024-05-09T16:50:04.051Z,18.6
2024-05-09T16:51:20.293Z,18.5
2024-05-09T16:52:36.549Z,18.5
2024-05-09T16:53:52.781Z,18.5
2024-05-09T16:55:08.042Z,18.5
2024-05-09T16:56:24.285Z,18.5
2024-05-09T16:57:40.521Z,18.5
2024-05-09T16:58:56.757Z,18.5
2024-05-09T17:00:13.006Z,18.5
2024-05-09T17:01:29.000Z,18.5
2024-05-09T17:02:45.473Z,18.5
2024-05-09T17:04:01.709Z,18.5
2024-05-09T17:05:17.952Z,18.5
2024-05-09T17:06:34.191Z,18.5
2024-05-09T17:07:50.433Z,18.5
2024-05-09T17:09:06.690Z,18.5
2024-05-09T17:10:22.919Z,18.5
2024-05-09T17:11:38.163Z,18.5
2024-05-09T17:12:54.411Z,18.4
2024-05-09T17:14:10.658Z,18.4
2024-05-09T17:15:26.887Z,18.4
2024-05-09T17:16:43.135Z,18.4